Latest Weather Observations for Bellambi
Issued at 10:13 pm EST Monday 4 May 2026 (issued every 10 minutes, with the page automatically refreshed every 10 minutes)
| Station Details | ID: 068228 | Name: BELLAMBI AWS | Lat: -34.37 | Lon: 150.93 | Height: 10.0 m |
| Date/Time EST |
Temp °C |
App Temp °C |
Dew Point °C |
Rel Hum % |
Delta-T °C |
Wind | Press QNH hPa |
Press MSL hPa |
Rain since 9am mm |
|||||
|---|---|---|---|---|---|---|---|---|---|---|---|---|---|---|
| Dir | Spd km/h |
Gust km/h |
Spd kts |
Gust kts |
||||||||||
| 04/10:00pm | 18.5 | 16.2 | 14.2 | 76 | 2.5 | WSW | 19 | 26 | 10 | 14 | - | - | 2.8 | |
| 04/09:30pm | 19.3 | 19.5 | 15.8 | 80 | 2.1 | WSW | 9 | 15 | 5 | 8 | - | - | 2.8 | |
| 04/09:00pm | 19.3 | 17.9 | 15.6 | 79 | 2.2 | SW | 17 | 28 | 9 | 15 | - | - | 2.8 | |
| 04/08:30pm | 19.3 | 19.0 | 15.4 | 78 | 2.3 | WNW | 11 | 20 | 6 | 11 | - | - | 2.8 | |
| 04/08:00pm | 20.1 | 19.0 | 15.3 | 74 | 2.8 | NNE | 15 | 24 | 8 | 13 | - | - | 2.8 | |
| 04/07:30pm | 20.1 | 19.1 | 15.5 | 75 | 2.7 | NNE | 15 | 22 | 8 | 12 | - | - | 2.8 | |
| 04/07:00pm | 20.0 | 19.3 | 15.4 | 75 | 2.7 | NNW | 13 | 24 | 7 | 13 | - | - | 2.8 | |
| 04/06:30pm | 20.1 | 19.1 | 15.5 | 75 | 2.7 | N | 15 | 22 | 8 | 12 | - | - | 2.8 | |
| 04/06:00pm | 19.7 | 18.3 | 15.6 | 77 | 2.4 | N | 17 | 28 | 9 | 15 | - | - | 2.8 | |
| 04/05:30pm | 19.8 | 18.0 | 15.9 | 78 | 2.3 | N | 20 | 28 | 11 | 15 | - | - | 2.8 | |
| 04/05:00pm | 19.9 | 18.7 | 16.0 | 78 | 2.3 | N | 17 | 22 | 9 | 12 | - | - | 2.8 | |
| 04/04:30pm | 20.0 | 18.1 | 15.8 | 77 | 2.5 | N | 20 | 30 | 11 | 16 | - | - | 2.8 | |
| 04/04:00pm | 19.9 | 18.7 | 16.0 | 78 | 2.3 | N | 17 | 24 | 9 | 13 | - | - | 2.8 | |
| 04/03:30pm | 19.9 | 17.8 | 16.2 | 79 | 2.2 | N | 22 | 32 | 12 | 17 | - | - | 2.8 | |
| 04/03:00pm | 19.7 | 17.2 | 16.2 | 80 | 2.1 | N | 24 | 32 | 13 | 17 | - | - | 2.8 | |
| 04/02:30pm | 19.3 | 16.7 | 16.0 | 81 | 2.0 | N | 24 | 33 | 13 | 18 | - | - | 2.8 | |
| 04/02:00pm | 19.1 | 15.8 | 16.1 | 83 | 1.8 | N | 28 | 35 | 15 | 19 | - | - | 2.8 | |
| 04/01:30pm | 18.9 | 16.3 | 16.0 | 83 | 1.7 | N | 24 | 30 | 13 | 16 | - | - | 2.8 | |
| 04/01:00pm | 18.9 | 15.4 | 16.5 | 86 | 1.4 | N | 30 | 46 | 16 | 25 | - | - | 2.8 | |
| 04/12:30pm | 18.6 | 14.5 | 16.0 | 85 | 1.5 | NNE | 32 | 39 | 17 | 21 | - | - | 2.6 | |
| 04/12:00pm | 18.9 | 17.0 | 15.8 | 82 | 1.8 | N | 20 | 28 | 11 | 15 | - | - | 2.6 | |
| 04/11:30am | 18.8 | 16.4 | 15.3 | 80 | 2.1 | NNW | 22 | 35 | 12 | 19 | - | - | 2.6 | |
| 04/11:00am | 18.2 | 17.2 | 15.5 | 84 | 1.6 | NW | 15 | 20 | 8 | 11 | - | - | 2.6 | |
| 04/10:30am | 18.1 | 16.7 | 15.5 | 85 | 1.5 | WNW | 17 | 24 | 9 | 13 | - | - | 1.6 | |
| 04/10:00am | 18.5 | 16.7 | 15.4 | 82 | 1.8 | WNW | 19 | 30 | 10 | 16 | - | - | 1.0 | |
| 04/09:30am | 19.2 | 17.3 | 15.1 | 77 | 2.4 | N | 19 | 28 | 10 | 15 | - | - | 0.0 | |
| 04/09:00am | 19.4 | 19.5 | 16.6 | 84 | 1.7 | NW | 11 | 17 | 6 | 9 | - | - | 0.0 | |
| 04/08:30am | 19.2 | 20.0 | 16.4 | 84 | 1.7 | WNW | 7 | 13 | 4 | 7 | - | - | 0.0 | |
| 04/08:00am | 19.4 | 18.9 | 16.8 | 85 | 1.6 | NNW | 15 | 19 | 8 | 10 | - | - | 0.0 | |
| 04/07:30am | 19.4 | 19.2 | 16.6 | 84 | 1.7 | N | 13 | 19 | 7 | 10 | - | - | 0.0 | |
| 04/07:00am | 19.1 | 19.5 | 16.3 | 84 | 1.7 | N | 9 | 13 | 5 | 7 | - | - | 0.0 | |
| 04/06:30am | 19.0 | 19.3 | 16.0 | 83 | 1.8 | N | 9 | 9 | 5 | 5 | - | - | 0.0 | |
| 04/06:00am | 18.7 | 18.5 | 15.8 | 83 | 1.7 | NW | 11 | 13 | 6 | 7 | - | - | 0.0 | |
| 04/05:30am | 18.5 | 19.5 | 15.4 | 82 | 1.8 | W | 4 | 9 | 2 | 5 | - | - | 0.0 | |
| 04/05:00am | 18.5 | 18.6 | 15.4 | 82 | 1.8 | WNW | 9 | 15 | 5 | 8 | - | - | 0.0 | |
| 04/04:30am | 18.2 | 18.6 | 15.3 | 83 | 1.7 | W | 7 | 13 | 4 | 7 | - | - | 0.0 | |
| 04/04:00am | 18.3 | 20.0 | 15.2 | 82 | 1.8 | CALM | 0 | 9 | 0 | 5 | - | - | 0.0 | |
| 04/03:30am | 19.2 | 19.5 | 15.9 | 81 | 2.0 | NW | 9 | 11 | 5 | 6 | - | - | 0.0 | |
| 04/03:00am | 19.5 | 19.0 | 16.0 | 80 | 2.1 | NNW | 13 | 17 | 7 | 9 | - | - | 0.0 | |
| 04/02:30am | 19.8 | 18.7 | 16.3 | 80 | 2.1 | NNW | 17 | 20 | 9 | 11 | - | - | 0.0 | |
| 04/02:00am | 19.8 | 19.6 | 16.6 | 82 | 1.9 | N | 13 | 19 | 7 | 10 | - | - | 0.0 | |
| 04/01:30am | 20.3 | 18.1 | 16.9 | 81 | 2.1 | NNW | 24 | 30 | 13 | 16 | - | - | 0.0 | |
| 04/01:00am | 20.3 | 19.0 | 16.7 | 80 | 2.2 | N | 19 | 24 | 10 | 13 | - | - | 0.0 | |
| 04/12:30am | 20.7 | 17.4 | 16.1 | 75 | 2.8 | NNW | 28 | 39 | 15 | 21 | - | - | 0.0 | |
| 04/12:00am | 21.0 | 17.5 | 16.4 | 75 | 2.8 | NNW | 30 | 35 | 16 | 19 | - | - | 0.0 | |
| Date/Time EST |
Temp °C |
App Temp °C |
Dew Point °C |
Rel Hum % |
Delta-T °C |
Wind | Press QNH hPa |
Press MSL hPa |
Rain since 9am mm |
|||||
|---|---|---|---|---|---|---|---|---|---|---|---|---|---|---|
| Dir | Spd km/h |
Gust km/h |
Spd kts |
Gust kts |
||||||||||
| 03/11:30pm | 20.8 | 17.3 | 16.4 | 76 | 2.7 | NNW | 30 | 33 | 16 | 18 | - | - | 0.0 | |
| 03/11:00pm | 21.0 | 17.5 | 16.4 | 75 | 2.8 | NNW | 30 | 37 | 16 | 20 | - | - | 0.0 | |
| 03/10:30pm | 21.2 | 17.4 | 16.6 | 75 | 2.8 | NNW | 32 | 35 | 17 | 19 | - | - | 0.0 | |
| 03/10:00pm | 20.8 | 18.0 | 17.4 | 81 | 2.1 | NNW | 28 | 32 | 15 | 17 | - | - | 0.0 | |
| 03/09:30pm | 20.6 | 20.2 | 18.0 | 85 | 1.6 | N | 17 | 24 | 9 | 13 | - | - | 0.0 | |
| 03/09:00pm | 20.2 | 20.8 | 17.6 | 85 | 1.6 | N | 11 | 13 | 6 | 7 | - | - | 0.0 | |
| 03/08:30pm | 20.5 | 20.7 | 17.7 | 84 | 1.7 | N | 13 | 15 | 7 | 8 | - | - | 0.0 | |
| 03/08:00pm | 20.8 | 20.2 | 17.6 | 82 | 2.0 | N | 17 | 20 | 9 | 11 | - | - | 0.0 | |
| 03/07:30pm | 20.8 | 19.7 | 17.4 | 81 | 2.1 | N | 19 | 22 | 10 | 12 | - | - | 0.0 | |
| 03/07:00pm | 21.1 | 19.8 | 18.1 | 83 | 1.9 | N | 22 | 28 | 12 | 15 | - | - | 0.0 | |
| 03/06:30pm | 20.8 | 20.4 | 18.0 | 84 | 1.7 | N | 17 | 24 | 9 | 13 | - | - | 0.0 | |
| 03/06:00pm | 20.9 | 19.9 | 17.5 | 81 | 2.1 | N | 19 | 24 | 10 | 13 | - | - | 0.0 | |
| 03/05:30pm | 21.2 | 19.5 | 18.0 | 82 | 2.0 | N | 24 | 30 | 13 | 16 | - | - | 0.0 | |
| 03/05:00pm | 21.4 | 19.3 | 18.0 | 81 | 2.1 | N | 26 | 33 | 14 | 18 | - | - | 0.0 | |
| 03/04:30pm | 21.8 | 19.8 | 18.2 | 80 | 2.2 | N | 26 | 35 | 14 | 19 | - | - | 0.0 | |
| 03/04:00pm | 22.1 | 19.5 | 17.9 | 77 | 2.6 | NNE | 28 | 37 | 15 | 20 | - | - | 0.0 | |
| 03/03:30pm | 21.9 | 17.5 | 17.5 | 76 | 2.7 | NNE | 37 | 44 | 20 | 24 | - | - | 0.0 | |
| 03/03:00pm | 22.0 | 17.5 | 17.4 | 75 | 2.8 | NNE | 37 | 44 | 20 | 24 | - | - | 0.0 | |
| 03/02:30pm | 22.2 | 18.4 | 17.3 | 74 | 3.0 | NNE | 33 | 43 | 18 | 23 | - | - | 0.0 | |
| 03/02:00pm | 22.7 | 19.6 | 17.4 | 72 | 3.3 | NNE | 30 | 37 | 16 | 20 | - | - | 0.0 | |
| 03/01:30pm | 22.2 | 18.3 | 16.9 | 72 | 3.2 | NNE | 33 | 39 | 18 | 21 | - | - | 0.0 | |
| 03/01:00pm | 22.6 | 20.1 | 17.1 | 71 | 3.4 | NNE | 26 | 35 | 14 | 19 | - | - | 0.0 | |
| 03/12:30pm | 22.8 | 21.4 | 16.6 | 68 | 3.8 | NE | 19 | 22 | 10 | 12 | - | - | 0.0 | |
| 03/12:00pm | 23.7 | 22.1 | 16.0 | 62 | 4.7 | NNE | 19 | 26 | 10 | 14 | - | - | 0.0 | |
| 03/11:30am | 23.1 | 21.2 | 15.7 | 63 | 4.5 | N | 20 | 28 | 11 | 15 | - | - | 0.0 | |
| 03/11:00am | 22.3 | 20.3 | 15.6 | 66 | 4.0 | N | 20 | 30 | 11 | 16 | - | - | 0.0 | |
| 03/10:30am | 22.9 | 20.0 | 15.0 | 61 | 4.7 | N | 24 | 32 | 13 | 17 | - | - | 0.0 | |
| 03/10:00am | 22.0 | 18.0 | 15.1 | 65 | 4.1 | N | 30 | 39 | 16 | 21 | - | - | 0.0 | |
| 03/09:30am | 21.9 | 18.2 | 15.0 | 65 | 4.1 | N | 28 | 35 | 15 | 19 | - | - | 0.0 | |
| 03/09:00am | 21.4 | 18.2 | 15.3 | 68 | 3.6 | N | 26 | 35 | 14 | 19 | - | - | 0.0 | |
| 03/08:30am | 20.6 | 18.2 | 15.4 | 72 | 3.1 | N | 22 | 30 | 12 | 16 | - | - | 0.0 | |
| 03/08:00am | 19.9 | 17.4 | 15.1 | 74 | 2.8 | NNW | 22 | 28 | 12 | 15 | - | - | 0.0 | |
| 03/07:30am | 19.7 | 17.2 | 15.1 | 75 | 2.7 | NNW | 22 | 30 | 12 | 16 | - | - | 0.0 | |
| 03/07:00am | 19.7 | 16.8 | 15.1 | 75 | 2.7 | NNW | 24 | 30 | 13 | 16 | - | - | 0.0 | |
| 03/06:30am | 19.6 | 17.0 | 15.0 | 75 | 2.7 | NNW | 22 | 30 | 12 | 16 | - | - | 0.0 | |
| 03/06:00am | 19.6 | 16.6 | 14.8 | 74 | 2.8 | NNW | 24 | 32 | 13 | 17 | - | - | 0.0 | |
| 03/05:30am | 19.7 | 16.5 | 15.4 | 76 | 2.5 | NNW | 26 | 32 | 14 | 17 | - | - | 0.0 | |
| 03/05:00am | 19.7 | 16.4 | 15.1 | 75 | 2.7 | NNW | 26 | 33 | 14 | 18 | - | - | 0.0 | |
| 03/04:30am | 19.8 | 16.6 | 15.2 | 75 | 2.7 | NNW | 26 | 32 | 14 | 17 | - | - | 0.0 | |
| 03/04:00am | 19.9 | 17.2 | 15.5 | 76 | 2.6 | NNW | 24 | 30 | 13 | 16 | - | - | 0.0 | |
| 03/03:30am | 19.9 | 17.2 | 15.5 | 76 | 2.6 | NNW | 24 | 28 | 13 | 15 | - | - | 0.0 | |
| 03/03:00am | 19.9 | 16.4 | 15.5 | 76 | 2.6 | NW | 28 | 33 | 15 | 18 | - | - | 0.0 | |
| 03/02:30am | 20.1 | 17.9 | 15.9 | 77 | 2.5 | NW | 22 | 28 | 12 | 15 | - | - | 0.0 | |
| 03/02:00am | 20.1 | 17.9 | 15.9 | 77 | 2.5 | NNW | 22 | 30 | 12 | 16 | - | - | 0.0 | |
| 03/01:30am | 20.0 | 17.9 | 16.2 | 79 | 2.3 | NNW | 22 | 28 | 12 | 15 | - | - | 0.0 | |
| 03/01:00am | 20.1 | 18.4 | 16.3 | 79 | 2.3 | NNW | 20 | 24 | 11 | 13 | - | - | 0.0 | |
| 03/12:30am | 20.2 | 18.1 | 16.2 | 78 | 2.4 | NNW | 22 | 28 | 12 | 15 | - | - | 0.0 | |
| 03/12:00am | 20.2 | 18.5 | 16.2 | 78 | 2.4 | NNW | 20 | 24 | 11 | 13 | - | - | 0.0 | |
| Date/Time EST |
Temp °C |
App Temp °C |
Dew Point °C |
Rel Hum % |
Delta-T °C |
Wind | Press QNH hPa |
Press MSL hPa |
Rain since 9am mm |
|||||
|---|---|---|---|---|---|---|---|---|---|---|---|---|---|---|
| Dir | Spd km/h |
Gust km/h |
Spd kts |
Gust kts |
||||||||||
| 02/11:30pm | 20.2 | 18.5 | 16.2 | 78 | 2.4 | NNW | 20 | 24 | 11 | 13 | - | - | 0.0 | |
| 02/11:00pm | 20.6 | 18.6 | 16.4 | 77 | 2.5 | NNW | 22 | 28 | 12 | 15 | - | - | 0.0 | |
| 02/10:30pm | 21.0 | 19.1 | 16.8 | 77 | 2.6 | N | 22 | 28 | 12 | 15 | - | - | 0.0 | |
| 02/10:00pm | 21.2 | 18.9 | 16.6 | 75 | 2.8 | N | 24 | 30 | 13 | 16 | - | - | 0.0 | |
| 02/09:30pm | 21.1 | 19.0 | 17.1 | 78 | 2.4 | N | 24 | 30 | 13 | 16 | - | - | 0.0 | |
| 02/09:00pm | 21.1 | 18.9 | 16.9 | 77 | 2.6 | N | 24 | 32 | 13 | 17 | - | - | 0.0 | |
| 02/08:30pm | 21.0 | 19.3 | 17.2 | 79 | 2.3 | N | 22 | 28 | 12 | 15 | - | - | 0.0 | |
| 02/08:00pm | 20.9 | 19.5 | 17.1 | 79 | 2.3 | N | 20 | 28 | 11 | 15 | - | - | 0.0 | |
| 02/07:30pm | 21.1 | 19.5 | 17.5 | 80 | 2.2 | N | 22 | 30 | 12 | 16 | - | - | 0.0 | |
| 02/07:00pm | 21.1 | 19.1 | 17.3 | 79 | 2.3 | N | 24 | 30 | 13 | 16 | - | - | 0.0 | |
| 02/06:30pm | 21.0 | 19.3 | 17.2 | 79 | 2.3 | N | 22 | 28 | 12 | 15 | - | - | 0.0 | |
| 02/06:00pm | 21.0 | 19.9 | 17.4 | 80 | 2.2 | N | 19 | 24 | 10 | 13 | - | - | 0.0 | |
| 02/05:30pm | 21.3 | 19.6 | 18.1 | 82 | 2.0 | N | 24 | 32 | 13 | 17 | - | - | 0.0 | |
| 02/05:00pm | 21.5 | 19.3 | 17.9 | 80 | 2.2 | N | 26 | 35 | 14 | 19 | - | - | 0.0 | |
| 02/04:30pm | 21.7 | 19.6 | 18.1 | 80 | 2.2 | NNE | 26 | 35 | 14 | 19 | - | - | 0.0 | |
| 02/04:00pm | 22.0 | 20.0 | 18.2 | 79 | 2.4 | NNE | 26 | 33 | 14 | 18 | - | - | 0.0 | |
| 02/03:30pm | 22.2 | 19.8 | 17.3 | 74 | 3.0 | NNE | 26 | 33 | 14 | 18 | - | - | 0.0 | |
| 02/03:00pm | 22.5 | 19.5 | 17.8 | 75 | 2.9 | NNE | 30 | 37 | 16 | 20 | - | - | 0.0 | |
| 02/02:30pm | 22.9 | 20.8 | 18.0 | 74 | 3.1 | NNE | 26 | 33 | 14 | 18 | - | - | 0.0 | |
| 02/02:00pm | 23.0 | 22.2 | 17.0 | 69 | 3.7 | N | 17 | 28 | 9 | 15 | - | - | 0.0 | |
| 02/01:30pm | 22.8 | 21.4 | 17.0 | 70 | 3.6 | NNE | 20 | 28 | 11 | 15 | - | - | 0.0 | |
| 02/01:00pm | 22.6 | 20.9 | 17.1 | 71 | 3.4 | NNE | 22 | 28 | 12 | 15 | - | - | 0.0 | |
| 02/12:30pm | 23.9 | 23.5 | 18.1 | 70 | 3.6 | NNE | 17 | 22 | 9 | 12 | - | - | 0.0 | |
| 02/12:00pm | 23.7 | 22.5 | 17.4 | 68 | 3.9 | N | 20 | 26 | 11 | 14 | - | - | 0.0 | |
| 02/11:30am | 23.7 | 22.4 | 17.2 | 67 | 4.0 | N | 20 | 28 | 11 | 15 | - | - | 0.0 | |
| 02/11:00am | 23.4 | 21.9 | 16.7 | 66 | 4.1 | N | 20 | 32 | 11 | 17 | - | - | 0.0 | |
| 02/10:30am | 22.6 | 21.7 | 16.9 | 70 | 3.5 | N | 17 | 24 | 9 | 13 | - | - | 0.0 | |
| 02/10:00am | 22.0 | 18.0 | 16.1 | 69 | 3.6 | NNW | 32 | 44 | 17 | 24 | - | - | 0.0 | |
| 02/09:30am | 21.6 | 18.3 | 16.1 | 71 | 3.3 | N | 28 | 39 | 15 | 21 | - | - | 0.0 | |
| 02/09:00am | 21.9 | 19.4 | 16.2 | 70 | 3.4 | NNW | 24 | 37 | 13 | 20 | - | - | 0.0 | |
| 02/08:30am | 20.9 | 19.1 | 15.4 | 71 | 3.3 | NW | 19 | 28 | 10 | 15 | - | - | 0.0 | |
| 02/08:00am | 20.4 | 19.6 | 15.2 | 72 | 3.1 | WNW | 13 | 22 | 7 | 12 | - | - | 0.0 | |
| 02/07:30am | 20.1 | 18.6 | 15.3 | 74 | 2.8 | N | 17 | 22 | 9 | 12 | - | - | 0.0 | |
| 02/07:00am | 20.0 | 17.6 | 15.4 | 75 | 2.7 | NNW | 22 | 28 | 12 | 15 | - | - | 0.0 | |
| 02/06:30am | 18.7 | 17.7 | 15.6 | 82 | 1.8 | WNW | 15 | 20 | 8 | 11 | - | - | 0.0 | |
| 02/06:00am | 18.3 | 16.7 | 16.5 | 89 | 1.1 | WNW | 20 | 28 | 11 | 15 | - | - | 0.0 | |
| 02/05:30am | 19.0 | 17.8 | 17.0 | 88 | 1.2 | NNE | 19 | 22 | 10 | 12 | - | - | 0.0 | |
| 02/05:00am | 19.9 | 18.9 | 16.7 | 82 | 1.9 | N | 17 | 22 | 9 | 12 | - | - | 0.0 | |
| 02/04:30am | 19.2 | 21.1 | 16.8 | 86 | 1.4 | NW | 2 | 9 | 1 | 5 | - | - | 0.0 | |
| 02/04:00am | 19.3 | 21.6 | 16.7 | 85 | 1.6 | CALM | 0 | 0 | 0 | 0 | - | - | 0.0 | |
| 02/03:30am | 19.1 | 20.2 | 16.5 | 85 | 1.6 | WSW | 6 | 7 | 3 | 4 | - | - | 0.0 | |
| 02/03:00am | 18.2 | 20.0 | 15.6 | 85 | 1.5 | CALM | 0 | 0 | 0 | 0 | - | - | 0.0 | |
| 02/02:30am | 17.9 | 17.6 | 15.5 | 86 | 1.4 | WSW | 11 | 13 | 6 | 7 | - | - | 0.0 | |
| 02/02:00am | 18.3 | 19.0 | 16.1 | 87 | 1.3 | NW | 7 | 7 | 4 | 4 | - | - | 0.0 | |
| 02/01:30am | 18.6 | 20.3 | 16.2 | 86 | 1.4 | NW | 2 | 6 | 1 | 3 | - | - | 0.0 | |
| 02/01:00am | 18.6 | 20.7 | 16.2 | 86 | 1.4 | CALM | 0 | 4 | 0 | 2 | - | - | 0.0 | |
| 02/12:30am | 18.9 | 19.0 | 16.5 | 86 | 1.4 | NW | 11 | 13 | 6 | 7 | - | - | 0.0 | |
| 02/12:00am | 19.7 | 19.4 | 17.3 | 86 | 1.5 | NNE | 15 | 20 | 8 | 11 | - | - | 0.0 | |
| Date/Time EST |
Temp °C |
App Temp °C |
Dew Point °C |
Rel Hum % |
Delta-T °C |
Wind | Press QNH hPa |
Press MSL hPa |
Rain since 9am mm |
||||
|---|---|---|---|---|---|---|---|---|---|---|---|---|---|
| Dir | Spd km/h |
Gust km/h |
Spd kts |
Gust kts |
|||||||||
| 01/11:30pm | 18.5 | 19.1 | 15.9 | 85 | 1.5 | NW | 7 | 11 | 4 | 6 | - | - | 0.0 |
| 01/11:00pm | 17.7 | 17.4 | 14.4 | 81 | 1.9 | WNW | 9 | 11 | 5 | 6 | - | - | 0.0 |
| 01/10:30pm | 17.7 | 17.9 | 14.8 | 83 | 1.7 | WNW | 7 | 9 | 4 | 5 | - | - | 0.0 |
Other formats
Comma delimited format used in spreadsheet applications
http://www.bom.gov.au/fwo/IDN60801/IDN60801.94749.axf
JavaScript Object Notation format (JSON) in row-major order
http://www.bom.gov.au/fwo/IDN60801/IDN60801.94749.json
Data quality
Most of these data are generated automatically and are frequently updated. Quality checks on data are not normally performed. It is possible for incorrect values to appear. Refer to information at About Latest Weather Observations and please check the disclaimer before using these data.
